createdAt,value
2023-04-01T00:04:03.172Z,83.82
2023-04-01T00:08:08.115Z,83.39
2023-04-01T00:12:11.081Z,84.93
2023-04-01T00:16:21.610Z,85.74
2023-04-01T00:20:25.666Z,85.51
2023-04-01T00:24:29.881Z,87.01
2023-04-01T00:28:32.818Z,88.72
2023-04-01T00:32:36.009Z,88.22
2023-04-01T00:36:39.561Z,88.90
2023-04-01T00:40:45.877Z,87.94
2023-04-01T00:44:51.875Z,88.28
2023-04-01T00:48:56.631Z,87.84
2023-04-01T00:53:00.784Z,90.33
2023-04-01T00:57:08.436Z,91.15
2023-04-01T01:01:11.764Z,91.27
2023-04-01T01:05:15.587Z,92.75
2023-04-01T01:09:25.947Z,90.89
2023-04-01T01:13:34.823Z,90.66
2023-04-01T01:17:46.527Z,91.59
2023-04-01T01:21:59.188Z,90.08
2023-04-01T01:26:23.467Z,90.53
2023-04-01T01:30:38.908Z,90.16
2023-04-01T01:34:47.113Z,90.07
2023-04-01T01:38:52.870Z,91.73
2023-04-01T01:42:58.379Z,91.55
2023-04-01T01:47:02.132Z,92.02
2023-04-01T01:51:05.728Z,92.26
2023-04-01T01:55:29.942Z,91.40
2023-04-01T01:59:34.341Z,91.07
2023-04-01T02:03:39.009Z,91.09
2023-04-01T02:07:44.940Z,90.00
2023-04-01T02:11:52.229Z,90.36
2023-04-01T02:15:58.199Z,90.38
2023-04-01T02:20:05.468Z,90.28
2023-04-01T02:24:11.587Z,90.73
2023-04-01T02:28:17.663Z,91.29
2023-04-01T02:32:21.828Z,90.03
2023-04-01T02:36:24.894Z,90.26
2023-04-01T02:40:27.888Z,90.66
2023-04-01T02:44:32.024Z,90.38
2023-04-01T02:48:34.908Z,90.24
2023-04-01T02:52:37.933Z,89.88
2023-04-01T02:56:40.941Z,88.48
2023-04-01T03:00:45.282Z,87.82
2023-04-01T03:04:48.020Z,89.26
2023-04-01T03:08:50.701Z,89.24
2023-04-01T03:12:53.397Z,89.57
2023-04-01T03:16:57.708Z,88.87
2023-04-01T03:21:15.268Z,90.41
2023-04-01T03:25:18.111Z,90.47
2023-04-01T03:29:21.198Z,89.72
2023-04-01T03:33:25.483Z,91.07
2023-04-01T03:37:28.553Z,91.76
2023-04-01T03:41:31.794Z,91.83
2023-04-01T03:45:34.879Z,90.13
2023-04-01T03:49:39.380Z,89.46
2023-04-01T03:53:42.105Z,90.40
2023-04-01T03:57:44.948Z,91.37
2023-04-01T04:01:49.497Z,90.52
2023-04-01T04:05:53.998Z,90.36
2023-04-01T04:09:56.831Z,92.19
2023-04-01T04:13:59.653Z,92.17
2023-04-01T04:18:02.619Z,93.24
2023-04-01T04:22:06.801Z,92.59
2023-04-01T04:26:11.109Z,94.40
2023-04-01T04:30:14.579Z,94.28
2023-04-01T04:34:17.440Z,93.67
2023-04-01T04:38:21.658Z,94.57
2023-04-01T04:42:24.513Z,93.98
2023-04-01T04:46:27.523Z,94.46
2023-04-01T04:50:30.665Z,94.28
2023-04-01T04:54:34.810Z,95.10
2023-04-01T04:58:37.747Z,94.89
2023-04-01T05:02:40.846Z,94.58
2023-04-01T05:06:45.344Z,95.21
2023-04-01T05:10:49.574Z,95.88
2023-04-01T05:14:52.279Z,96.13
2023-04-01T05:18:55.043Z,95.74
2023-04-01T05:22:58.257Z,95.69
2023-04-01T05:27:02.523Z,97.27
2023-04-01T05:31:05.456Z,97.10
2023-04-01T05:35:09.118Z,96.57
2023-04-01T05:39:12.261Z,97.67
2023-04-01T05:43:16.351Z,97.58
2023-04-01T05:47:19.114Z,97.23
2023-04-01T05:51:21.945Z,97.47
2023-04-01T05:55:24.856Z,96.92
2023-04-01T05:59:29.120Z,96.68
2023-04-01T06:03:32.148Z,96.94
2023-04-01T06:07:35.037Z,96.81
2023-04-01T06:11:47.328Z,95.69
2023-04-01T06:15:56.636Z,97.86
2023-04-01T06:20:06.235Z,96.49
2023-04-01T06:24:27.565Z,96.48
2023-04-01T06:28:42.163Z,97.39
2023-04-01T06:33:00.050Z,97.17
2023-04-01T06:37:13.486Z,97.63
2023-04-01T06:42:13.903Z,99.22
2023-04-01T06:46:22.563Z,97.93
2023-04-01T06:50:31.685Z,97.85
2023-04-01T06:54:36.898Z,98.03
2023-04-01T06:58:42.312Z,98.91
2023-04-01T07:02:48.709Z,98.38
2023-04-01T07:06:55.096Z,99.25
2023-04-01T07:11:00.688Z,98.79
2023-04-01T07:15:08.123Z,98.74
2023-04-01T07:19:14.733Z,98.90
2023-04-01T07:23:23.959Z,99.42
2023-04-01T07:27:26.791Z,98.29
2023-04-01T07:31:52.322Z,98.01
2023-04-01T07:35:58.209Z,98.26
2023-04-01T07:40:11.940Z,99.00
2023-04-01T07:44:19.952Z,99.46
2023-04-01T07:48:27.864Z,98.95
2023-04-01T07:52:36.571Z,98.09
2023-04-01T07:56:47.120Z,98.93
2023-04-01T08:00:54.311Z,98.89
2023-04-01T08:05:02.790Z,98.37
2023-04-01T08:09:11.381Z,99.01
2023-04-01T08:13:22.874Z,98.95
2023-04-01T08:17:31.457Z,98.91
2023-04-01T08:21:37.602Z,98.88
2023-04-01T08:25:41.997Z,98.86
2023-04-01T08:29:53.242Z,98.75
2023-04-01T08:33:56.894Z,98.02
2023-04-01T08:38:03.451Z,98.32
2023-04-01T08:42:25.657Z,98.92
2023-04-01T08:46:58.472Z,99.27
2023-04-01T08:51:25.543Z,98.68
2023-04-01T08:55:41.530Z,98.54
2023-04-01T08:59:58.281Z,98.60
2023-04-01T09:04:26.663Z,98.25
2023-04-01T09:08:39.972Z,99.18
2023-04-01T09:12:57.817Z,98.18
2023-04-01T09:17:21.622Z,97.89
2023-04-01T09:21:34.414Z,98.39
2023-04-01T09:25:56.172Z,97.28
2023-04-01T09:30:35.990Z,98.16
2023-04-01T09:34:56.890Z,97.64
2023-04-01T09:39:02.037Z,97.83
2023-04-01T09:43:24.255Z,98.13
2023-04-01T09:47:41.282Z,97.56
2023-04-01T09:51:55.714Z,97.28
2023-04-01T09:56:40.534Z,98.11
2023-04-01T10:01:07.546Z,98.42
2023-04-01T10:05:41.862Z,96.36
2023-04-01T10:10:32.516Z,97.09
2023-04-01T10:15:11.953Z,96.37
2023-04-01T10:19:42.031Z,96.67
2023-04-01T10:23:57.483Z,95.62
2023-04-01T10:28:32.459Z,95.44
2023-04-01T10:33:20.005Z,95.25
2023-04-01T10:37:41.934Z,96.00
2023-04-01T10:42:22.084Z,95.62
2023-04-01T10:46:55.613Z,96.05
2023-04-01T10:51:18.428Z,94.96
2023-04-01T10:55:44.492Z,95.67
2023-04-01T11:00:25.903Z,96.33
2023-04-01T11:05:04.992Z,96.35
2023-04-01T11:09:44.361Z,95.58
2023-04-01T11:14:18.443Z,96.15
2023-04-01T11:19:03.720Z,96.12
2023-04-01T11:23:51.973Z,96.82
2023-04-01T11:28:26.478Z,98.29
2023-04-01T11:32:47.725Z,97.59
2023-04-01T11:37:00.619Z,97.45
2023-04-01T11:41:13.101Z,96.09
2023-04-01T11:45:29.820Z,94.86
2023-04-01T11:49:42.517Z,94.67
2023-04-01T11:53:50.670Z,94.61
2023-04-01T11:58:05.912Z,95.39
2023-04-01T12:02:14.301Z,94.77
2023-04-01T12:06:21.513Z,95.91
2023-04-01T12:10:29.905Z,95.10
2023-04-01T12:14:36.750Z,95.07
2023-04-01T12:18:44.021Z,96.02
2023-04-01T12:22:52.742Z,94.92
2023-04-01T12:27:04.790Z,94.78
2023-04-01T12:31:21.644Z,94.92
2023-04-01T12:35:28.238Z,92.93
2023-04-01T12:39:43.601Z,93.77
2023-04-01T12:44:01.084Z,94.05
2023-04-01T12:48:33.221Z,93.17
2023-04-01T12:52:44.703Z,93.79
2023-04-01T12:56:56.184Z,93.09
2023-04-01T13:01:12.129Z,94.79
2023-04-01T13:05:25.573Z,92.92
2023-04-01T13:09:39.164Z,93.94
2023-04-01T13:13:58.654Z,91.76
2023-04-01T13:18:12.362Z,93.21
2023-04-01T13:22:19.599Z,93.13
2023-04-01T13:26:30.696Z,93.24
2023-04-01T13:30:38.050Z,94.16
2023-04-01T13:34:54.539Z,94.32
2023-04-01T13:39:09.120Z,92.57
2023-04-01T13:43:17.684Z,93.49
2023-04-01T13:47:33.818Z,92.87
2023-04-01T13:51:43.250Z,91.94
2023-04-01T13:55:57.921Z,91.97
2023-04-01T14:00:39.322Z,92.59
2023-04-01T14:05:11.768Z,90.70
2023-04-01T14:09:37.442Z,91.73
2023-04-01T14:13:48.640Z,93.12
2023-04-01T14:18:06.798Z,93.12
2023-04-01T14:22:16.252Z,93.86
2023-04-01T14:26:28.332Z,92.93
2023-04-01T14:30:59.794Z,92.97
2023-04-01T14:35:18.175Z,93.14
2023-04-01T14:39:36.155Z,94.31
2023-04-01T14:44:26.935Z,96.00
2023-04-01T14:48:33.343Z,94.92
2023-04-01T14:52:38.743Z,94.19
2023-04-01T14:56:44.632Z,92.92
2023-04-01T15:00:55.340Z,92.72
2023-04-01T15:05:01.160Z,93.12
2023-04-01T15:09:08.745Z,95.41
2023-04-01T15:13:15.801Z,95.30
2023-04-01T15:17:43.172Z,95.13
2023-04-01T15:21:58.371Z,95.18
2023-04-01T15:26:13.936Z,95.28
2023-04-01T15:30:33.159Z,95.31
2023-04-01T15:34:39.279Z,93.65
2023-04-01T15:38:49.076Z,94.34
2023-04-01T15:43:01.789Z,93.23
2023-04-01T15:47:11.743Z,95.13
2023-04-01T15:51:23.193Z,94.75
2023-04-01T15:55:29.280Z,93.00
2023-04-01T15:59:49.629Z,93.26
2023-04-01T16:03:58.650Z,94.49
2023-04-01T16:08:24.107Z,94.26
2023-04-01T16:12:38.767Z,94.20
2023-04-01T16:16:52.464Z,92.49
2023-04-01T16:21:00.317Z,92.97
2023-04-01T16:25:19.842Z,93.21
2023-04-01T16:29:29.353Z,92.20
2023-04-01T16:33:40.147Z,92.38
2023-04-01T16:37:48.735Z,93.03
2023-04-01T16:41:52.519Z,93.13
2023-04-01T16:46:13.104Z,93.22
2023-04-01T16:50:21.364Z,91.60
2023-04-01T16:54:31.337Z,94.61
2023-04-01T16:58:37.036Z,93.79
2023-04-01T17:02:40.931Z,92.78
2023-04-01T17:06:46.508Z,94.54
2023-04-01T17:10:54.394Z,94.09
2023-04-01T17:15:03.737Z,93.77
2023-04-01T17:19:12.506Z,94.32
2023-04-01T17:23:22.353Z,93.48
2023-04-01T17:27:37.093Z,93.83
2023-04-01T17:31:48.704Z,93.38
2023-04-01T17:35:59.057Z,95.79
2023-04-01T17:40:14.553Z,93.86
2023-04-01T17:44:27.873Z,94.76
2023-04-01T17:48:42.191Z,94.81
2023-04-01T17:52:47.640Z,94.41
2023-04-01T17:57:00.919Z,93.96
2023-04-01T18:01:14.280Z,93.85
2023-04-01T18:05:29.277Z,94.69
2023-04-01T18:09:36.807Z,94.35
2023-04-01T18:14:00.645Z,93.93
2023-04-01T18:18:13.805Z,93.42
2023-04-01T18:22:21.358Z,94.01
2023-04-01T18:26:25.642Z,93.32
2023-04-01T18:30:30.759Z,93.66
2023-04-01T18:34:43.405Z,93.88
2023-04-01T18:38:50.552Z,94.33
2023-04-01T18:43:02.647Z,93.98
2023-04-01T18:47:13.412Z,94.64
2023-04-01T18:51:20.000Z,94.25
2023-04-01T18:55:36.479Z,95.52
2023-04-01T18:59:41.677Z,95.14
2023-04-01T19:03:50.905Z,94.13
2023-04-01T19:07:56.071Z,93.93
2023-04-01T19:12:17.491Z,93.64
2023-04-01T19:16:28.571Z,94.81
2023-04-01T19:20:35.328Z,94.05
2023-04-01T19:24:56.336Z,94.56
2023-04-01T19:29:03.740Z,93.51
2023-04-01T19:33:17.845Z,94.65
2023-04-01T19:37:28.582Z,95.01
2023-04-01T19:41:41.736Z,94.59
2023-04-01T19:45:47.848Z,94.09
2023-04-01T19:49:55.841Z,95.23
2023-04-01T19:54:02.108Z,95.00
2023-04-01T19:58:09.448Z,94.67
2023-04-01T20:02:36.115Z,95.00
2023-04-01T20:06:46.252Z,94.93
2023-04-01T20:10:51.257Z,94.74
2023-04-01T20:14:57.120Z,94.75
2023-04-01T20:19:01.710Z,95.68
2023-04-01T20:23:10.253Z,95.59
2023-04-01T20:27:19.357Z,95.55
2023-04-01T20:31:33.483Z,94.94
2023-04-01T20:35:46.824Z,95.78
2023-04-01T20:40:19.436Z,96.89
2023-04-01T20:44:23.937Z,97.00
2023-04-01T20:48:38.842Z,97.26
2023-04-01T20:52:44.083Z,97.32
2023-04-01T20:56:57.045Z,97.46
2023-04-01T21:01:08.305Z,97.79
2023-04-01T21:05:29.437Z,97.80
2023-04-01T21:09:40.960Z,98.34
2023-04-01T21:13:54.120Z,98.07
2023-04-01T21:18:03.497Z,98.08
2023-04-01T21:22:29.328Z,98.42
2023-04-01T21:26:43.825Z,98.69
2023-04-01T21:31:02.710Z,98.54
2023-04-01T21:35:10.710Z,99.26
2023-04-01T21:39:24.345Z,98.83
2023-04-01T21:43:42.439Z,98.76
2023-04-01T21:48:29.965Z,98.30
2023-04-01T21:52:37.985Z,98.28
2023-04-01T21:57:19.177Z,97.82
2023-04-01T22:01:54.990Z,98.20
2023-04-01T22:06:04.905Z,98.33
2023-04-01T22:10:16.059Z,98.43
2023-04-01T22:14:24.663Z,97.85
2023-04-01T22:18:34.697Z,99.08
2023-04-01T22:22:55.436Z,99.16
2023-04-01T22:27:02.640Z,99.95
2023-04-01T22:31:07.755Z,99.47
2023-04-01T22:35:16.283Z,99.16
2023-04-01T22:39:31.055Z,99.33
2023-04-01T22:43:39.141Z,99.63
2023-04-01T22:47:52.620Z,99.67
2023-04-01T22:51:58.016Z,98.97
2023-04-01T22:56:07.517Z,98.46
2023-04-01T23:00:16.281Z,98.88
2023-04-01T23:04:24.438Z,98.76
2023-04-01T23:08:52.308Z,98.09
2023-04-01T23:13:00.491Z,97.74
2023-04-01T23:17:13.227Z,98.64
2023-04-01T23:21:18.761Z,98.29
2023-04-01T23:25:28.943Z,98.42
2023-04-01T23:29:37.722Z,97.70
2023-04-01T23:33:40.673Z,98.50
2023-04-01T23:37:43.579Z,97.38
2023-04-01T23:41:46.717Z,97.72
2023-04-01T23:45:51.357Z,99.02
2023-04-01T23:49:56.066Z,97.95
2023-04-01T23:54:01.626Z,96.98
2023-04-01T23:58:16.274Z,97.40
